Time,TemperatureF,DewpointF,PressureIn,WindDirection,WindDirectionDegrees,WindSpeedMPH,WindSpeedGustMPH,Humidity,HourlyPrecipIn,Conditions,Clouds,dailyrainin,SolarRadiationWatts/m^2,SoftwareType,DateUTC
2013-03-23 00:02:00,26.0,2.0,-100.00,North,1,0.0,2.0,34,0.00,,,0.00,0.000000,,2013-03-23 07:02:00,
2013-03-23 01:02:00,27.0,2.0,-100.00,North,358,0.0,0.0,34,0.00,,,0.00,0.000000,,2013-03-23 08:02:00,
2013-03-23 01:12:00,27.0,2.0,-100.00,North,358,0.0,0.0,34,0.00,,,0.00,0.000000,,2013-03-23 08:12:00,
2013-03-23 01:22:00,27.0,2.0,-100.00,North,358,0.0,0.0,34,0.00,,,0.00,0.000000,,2013-03-23 08:22:00,
2013-03-23 01:31:00,27.0,2.0,-100.00,North,358,0.0,0.0,34,0.00,,,0.00,0.000000,,2013-03-23 08:31:00,
2013-03-23 02:02:00,28.0,3.0,-100.00,West,264,0.0,3.0,34,0.00,,,0.00,0.000000,,2013-03-23 09:02:00,
2013-03-23 02:12:00,28.0,3.0,-100.00,West,264,0.0,3.0,34,0.00,,,0.00,0.000000,,2013-03-23 09:12:00,
2013-03-23 02:22:00,28.0,3.0,-100.00,West,264,0.0,3.0,34,0.00,,,0.00,0.000000,,2013-03-23 09:22:00,
2013-03-23 02:32:00,28.0,3.0,-100.00,West,264,0.0,3.0,34,0.00,,,0.00,0.000000,,2013-03-23 09:32:00,
2013-03-23 03:03:00,30.0,6.0,-100.00,SE,137,0.0,0.0,35,0.00,,,0.00,0.000000,,2013-03-23 10:03:00,
2013-03-23 03:12:00,30.0,6.0,-100.00,SE,137,0.0,0.0,35,0.00,,,0.00,0.000000,,2013-03-23 10:12:00,
2013-03-23 03:23:00,30.0,6.0,-100.00,SE,137,0.0,0.0,35,0.00,,,0.00,0.000000,,2013-03-23 10:23:00,
2013-03-23 03:33:00,30.0,6.0,-100.00,SE,137,0.0,0.0,35,0.00,,,0.00,0.000000,,2013-03-23 10:33:00,
2013-03-23 04:03:00,35.0,7.0,-100.00,NE,49,0.0,4.0,31,0.00,,,-99.99,0.000000,,2013-03-23 11:03:00,
2013-03-23 04:12:00,35.0,7.0,-100.00,NE,49,0.0,4.0,31,0.00,,,-99.99,0.000000,,2013-03-23 11:12:00,
2013-03-23 04:22:00,35.0,7.0,-100.00,NE,49,0.0,4.0,31,0.00,,,-99.99,0.000000,,2013-03-23 11:22:00,
2013-03-23 04:32:00,35.0,7.0,-100.00,NE,49,0.0,4.0,31,0.00,,,-99.99,0.000000,,2013-03-23 11:32:00,
2013-03-23 05:02:00,34.0,7.0,-100.00,NE,51,0.0,4.0,32,0.00,,,0.00,0.000000,,2013-03-23 12:02:00,
2013-03-23 05:12:00,34.0,7.0,-100.00,NE,51,0.0,4.0,32,0.00,,,0.00,0.000000,,2013-03-23 12:12:00,
2013-03-23 05:22:00,34.0,7.0,-100.00,NE,51,0.0,4.0,32,0.00,,,0.00,0.000000,,2013-03-23 12:22:00,
2013-03-23 05:32:00,34.0,7.0,-100.00,NE,51,0.0,4.0,32,0.00,,,0.00,0.000000,,2013-03-23 12:32:00,
2013-03-23 06:02:00,33.0,13.0,-100.00,West,266,0.0,6.0,43,0.00,,,0.00,0.000000,,2013-03-23 13:02:00,
2013-03-23 06:12:00,33.0,13.0,-100.00,West,266,0.0,6.0,43,0.00,,,0.00,0.000000,,2013-03-23 13:12:00,
2013-03-23 06:22:00,33.0,13.0,-100.00,West,266,0.0,6.0,43,0.00,,,0.00,0.000000,,2013-03-23 13:22:00,
2013-03-23 06:32:00,33.0,13.0,-100.00,West,266,0.0,6.0,43,0.00,,,0.00,0.000000,,2013-03-23 13:32:00,
2013-03-23 07:03:00,35.0,-8.0,-100.00,NNE,15,0.0,10.0,15,0.00,,,0.00,0.000000,,2013-03-23 14:03:00,
2013-03-23 08:03:00,39.0,-5.0,-100.00,North,11,0.0,8.0,15,0.00,,,0.00,27.000000,,2013-03-23 15:03:00,
2013-03-23 08:12:00,39.0,-5.0,-100.00,North,11,0.0,8.0,15,0.00,,,0.00,27.000000,,2013-03-23 15:12:00,
2013-03-23 08:22:00,39.0,-5.0,-100.00,North,11,0.0,8.0,15,0.00,,,0.00,27.000000,,2013-03-23 15:22:00,
2013-03-23 09:03:00,49.0,-7.0,-100.00,ENE,61,2.0,5.0,9,0.00,,,0.00,294.000000,,2013-03-23 16:03:00,
2013-03-23 10:02:00,57.0,3.0,-100.00,NNE,26,2.0,7.0,11,-99.99,,,0.00,582.000000,,2013-03-23 17:02:00,
2013-03-23 11:02:00,60.0,3.0,-100.00,NE,48,2.0,9.0,10,-99.99,,,0.00,839.000000,,2013-03-23 18:02:00,
2013-03-23 12:02:00,60.0,12.0,-100.00,NE,51,3.0,9.0,15,-99.99,,,0.00,1028.000000,,2013-03-23 19:02:00,
2013-03-23 13:02:00,62.0,-10.0,-100.00,SSW,206,2.0,8.0,5,-99.99,,,0.00,1146.000000,,2013-03-23 20:02:00,
2013-03-23 14:02:00,63.0,11.0,-100.00,North,352,2.0,12.0,13,-99.99,,,0.00,1176.000000,,2013-03-23 21:02:00,
2013-03-23 15:02:00,61.0,-1.0,-100.00,SW,220,3.0,10.0,8,-99.99,,,0.00,1125.000000,,2013-03-23 22:02:00,
2013-03-23 16:02:00,64.0,-5.0,-100.00,NW,322,1.0,13.0,6,0.00,,,-99.99,999.000000,,2013-03-23 23:02:00,
2013-03-23 17:02:00,59.0,3.0,-100.00,SE,137,4.0,12.0,10,-99.99,,,0.00,791.000000,,2013-03-24 00:02:00,
2013-03-23 18:02:00,55.0,10.0,-100.00,SW,215,2.0,9.0,16,0.00,,,0.00,485.000000,,2013-03-24 01:02:00,
2013-03-23 18:12:00,55.0,10.0,-100.00,SW,215,2.0,9.0,16,0.00,,,0.00,485.000000,,2013-03-24 01:12:00,
2013-03-23 18:22:00,55.0,10.0,-100.00,SW,215,2.0,9.0,16,0.00,,,0.00,485.000000,,2013-03-24 01:22:00,
2013-03-23 18:32:00,55.0,10.0,-100.00,SW,215,2.0,9.0,16,0.00,,,0.00,485.000000,,2013-03-24 01:32:00,
2013-03-23 19:02:00,49.0,14.0,-100.00,SSW,209,2.0,9.0,24,0.00,,,0.00,102.000000,,2013-03-24 02:02:00,
2013-03-23 19:12:00,49.0,14.0,-100.00,SSW,209,2.0,9.0,24,0.00,,,0.00,102.000000,,2013-03-24 02:12:00,
2013-03-23 19:21:00,49.0,14.0,-100.00,SSW,209,2.0,9.0,24,0.00,,,0.00,102.000000,,2013-03-24 02:21:00,
2013-03-23 19:32:00,49.0,14.0,-100.00,SSW,209,2.0,9.0,24,0.00,,,0.00,102.000000,,2013-03-24 02:32:00,
2013-03-23 20:02:00,44.0,22.0,-100.00,SSW,211,0.0,8.0,42,0.00,,,0.00,8.000000,,2013-03-24 03:02:00,
2013-03-23 20:12:00,44.0,22.0,-100.00,SSW,211,0.0,8.0,42,0.00,,,0.00,8.000000,,2013-03-24 03:12:00,
2013-03-23 20:22:00,44.0,22.0,-100.00,SSW,211,0.0,8.0,42,0.00,,,0.00,8.000000,,2013-03-24 03:22:00,
2013-03-23 20:32:00,44.0,22.0,-100.00,SSW,211,0.0,8.0,42,0.00,,,0.00,8.000000,,2013-03-24 03:32:00,
2013-03-23 21:02:00,43.0,14.0,-100.00,SSW,213,1.0,5.0,31,0.00,,,0.00,0.000000,,2013-03-24 04:02:00,
2013-03-23 21:12:00,43.0,14.0,-100.00,SSW,213,1.0,5.0,31,0.00,,,0.00,0.000000,,2013-03-24 04:12:00,
2013-03-23 21:22:00,43.0,14.0,-100.00,SSW,213,1.0,5.0,31,0.00,,,0.00,0.000000,,2013-03-24 04:22:00,
2013-03-23 21:32:00,43.0,14.0,-100.00,SSW,213,1.0,5.0,31,0.00,,,0.00,0.000000,,2013-03-24 04:32:00,
2013-03-23 22:02:00,43.0,14.0,-100.00,SW,223,2.0,6.0,31,0.00,,,0.00,0.000000,,2013-03-24 05:02:00,
2013-03-23 22:12:00,43.0,14.0,-100.00,SW,223,2.0,6.0,31,0.00,,,0.00,0.000000,,2013-03-24 05:12:00,
2013-03-23 22:22:00,43.0,14.0,-100.00,SW,223,2.0,6.0,31,0.00,,,0.00,0.000000,,2013-03-24 05:22:00,
2013-03-23 22:32:00,43.0,14.0,-100.00,SW,223,2.0,6.0,31,0.00,,,0.00,0.000000,,2013-03-24 05:32:00,
2013-03-23 23:02:00,41.0,10.0,-100.00,SW,219,1.0,8.0,28,0.00,,,0.00,0.000000,,2013-03-24 06:02:00,
2013-03-23 23:12:00,41.0,10.0,-100.00,SW,219,1.0,8.0,28,0.00,,,0.00,0.000000,,2013-03-24 06:12:00,
2013-03-23 23:22:00,41.0,10.0,-100.00,SW,219,1.0,8.0,28,0.00,,,0.00,0.000000,,2013-03-24 06:22:00,
2013-03-23 23:32:00,41.0,10.0,-100.00,SW,219,1.0,8.0,28,0.00,,,0.00,0.000000,,2013-03-24 06:32:00,